sensor_id;sensor_type;location;lat;lon;timestamp;temperature;humidity
17813;DHT22;9030;50.792;8.320;2023-08-07T00:01:34;12.10;99.90
17813;DHT22;9030;50.792;8.320;2023-08-07T00:04:03;12.10;99.90
17813;DHT22;9030;50.792;8.320;2023-08-07T00:06:29;12.10;99.90
17813;DHT22;9030;50.792;8.320;2023-08-07T00:08:56;12.10;99.90
17813;DHT22;9030;50.792;8.320;2023-08-07T00:11:22;12.10;99.90
17813;DHT22;9030;50.792;8.320;2023-08-07T00:13:49;12.10;99.90
17813;DHT22;9030;50.792;8.320;2023-08-07T00:16:16;12.00;99.90
17813;DHT22;9030;50.792;8.320;2023-08-07T00:18:42;12.00;99.90
17813;DHT22;9030;50.792;8.320;2023-08-07T00:21:11;12.00;99.90
17813;DHT22;9030;50.792;8.320;2023-08-07T00:23:37;12.00;99.90
17813;DHT22;9030;50.792;8.320;2023-08-07T00:26:04;12.00;99.90
17813;DHT22;9030;50.792;8.320;2023-08-07T00:28:30;12.00;99.90
17813;DHT22;9030;50.792;8.320;2023-08-07T00:30:57;12.00;99.90
17813;DHT22;9030;50.792;8.320;2023-08-07T00:33:24;12.00;99.90
17813;DHT22;9030;50.792;8.320;2023-08-07T00:35:50;12.00;99.90
17813;DHT22;9030;50.792;8.320;2023-08-07T00:38:18;12.00;99.90
17813;DHT22;9030;50.792;8.320;2023-08-07T00:40:45;12.00;99.90
17813;DHT22;9030;50.792;8.320;2023-08-07T00:43:12;12.00;99.90
17813;DHT22;9030;50.792;8.320;2023-08-07T00:45:42;11.90;99.90
17813;DHT22;9030;50.792;8.320;2023-08-07T00:48:09;11.90;99.90
17813;DHT22;9030;50.792;8.320;2023-08-07T00:50:36;11.90;99.90
17813;DHT22;9030;50.792;8.320;2023-08-07T00:53:04;11.90;99.90
17813;DHT22;9030;50.792;8.320;2023-08-07T00:55:32;11.90;99.90
17813;DHT22;9030;50.792;8.320;2023-08-07T00:57:59;11.90;99.90
17813;DHT22;9030;50.792;8.320;2023-08-07T01:00:26;11.90;99.90
17813;DHT22;9030;50.792;8.320;2023-08-07T01:02:54;11.90;99.90
17813;DHT22;9030;50.792;8.320;2023-08-07T01:05:22;11.90;99.90
17813;DHT22;9030;50.792;8.320;2023-08-07T01:07:49;11.90;99.90
17813;DHT22;9030;50.792;8.320;2023-08-07T01:10:23;11.90;99.90
17813;DHT22;9030;50.792;8.320;2023-08-07T01:12:55;11.90;99.90
17813;DHT22;9030;50.792;8.320;2023-08-07T01:15:30;11.90;99.90
17813;DHT22;9030;50.792;8.320;2023-08-07T01:17:59;11.80;99.90
17813;DHT22;9030;50.792;8.320;2023-08-07T01:20:26;11.80;99.90
17813;DHT22;9030;50.792;8.320;2023-08-07T01:22:54;11.80;99.90
17813;DHT22;9030;50.792;8.320;2023-08-07T01:25:20;11.80;99.90
17813;DHT22;9030;50.792;8.320;2023-08-07T01:27:53;11.80;99.90
17813;DHT22;9030;50.792;8.320;2023-08-07T01:30:29;11.80;99.90
17813;DHT22;9030;50.792;8.320;2023-08-07T01:33:00;11.80;99.90
17813;DHT22;9030;50.792;8.320;2023-08-07T01:35:31;11.80;99.90
17813;DHT22;9030;50.792;8.320;2023-08-07T01:38:01;11.80;99.90
17813;DHT22;9030;50.792;8.320;2023-08-07T01:40:28;11.80;99.90
17813;DHT22;9030;50.792;8.320;2023-08-07T01:42:56;11.80;99.90
17813;DHT22;9030;50.792;8.320;2023-08-07T01:45:23;11.80;99.90
17813;DHT22;9030;50.792;8.320;2023-08-07T01:47:50;11.80;99.90
17813;DHT22;9030;50.792;8.320;2023-08-07T01:50:17;11.70;99.90
17813;DHT22;9030;50.792;8.320;2023-08-07T01:52:44;11.80;99.90
17813;DHT22;9030;50.792;8.320;2023-08-07T01:55:12;11.80;99.90
17813;DHT22;9030;50.792;8.320;2023-08-07T01:57:39;11.80;99.90
17813;DHT22;9030;50.792;8.320;2023-08-07T02:00:06;11.70;99.90
17813;DHT22;9030;50.792;8.320;2023-08-07T02:02:34;11.70;99.90
17813;DHT22;9030;50.792;8.320;2023-08-07T02:05:00;11.80;99.90
17813;DHT22;9030;50.792;8.320;2023-08-07T02:07:27;11.70;99.90
17813;DHT22;9030;50.792;8.320;2023-08-07T02:09:54;11.70;99.90
17813;DHT22;9030;50.792;8.320;2023-08-07T02:12:22;11.70;99.90
17813;DHT22;9030;50.792;8.320;2023-08-07T02:14:48;11.70;99.90
17813;DHT22;9030;50.792;8.320;2023-08-07T02:17:15;11.70;99.90
17813;DHT22;9030;50.792;8.320;2023-08-07T02:19:42;11.70;99.90
17813;DHT22;9030;50.792;8.320;2023-08-07T02:22:09;11.70;99.90
17813;DHT22;9030;50.792;8.320;2023-08-07T02:24:36;11.70;99.90
17813;DHT22;9030;50.792;8.320;2023-08-07T02:27:03;11.70;99.90
17813;DHT22;9030;50.792;8.320;2023-08-07T02:29:31;11.70;99.90
17813;DHT22;9030;50.792;8.320;2023-08-07T02:31:59;11.80;99.90
17813;DHT22;9030;50.792;8.320;2023-08-07T02:34:26;11.70;99.90
17813;DHT22;9030;50.792;8.320;2023-08-07T02:36:52;11.70;99.90
17813;DHT22;9030;50.792;8.320;2023-08-07T02:39:19;11.70;99.90
17813;DHT22;9030;50.792;8.320;2023-08-07T02:41:46;11.70;99.90
17813;DHT22;9030;50.792;8.320;2023-08-07T02:44:12;11.70;99.90
17813;DHT22;9030;50.792;8.320;2023-08-07T02:46:40;11.60;99.90
17813;DHT22;9030;50.792;8.320;2023-08-07T02:49:07;11.60;99.90
17813;DHT22;9030;50.792;8.320;2023-08-07T02:51:34;11.70;99.90
17813;DHT22;9030;50.792;8.320;2023-08-07T02:54:00;11.70;99.90
17813;DHT22;9030;50.792;8.320;2023-08-07T02:56:27;11.70;99.90
17813;DHT22;9030;50.792;8.320;2023-08-07T02:58:54;11.70;99.90
17813;DHT22;9030;50.792;8.320;2023-08-07T03:01:23;11.70;99.90
17813;DHT22;9030;50.792;8.320;2023-08-07T03:03:51;11.70;99.90
17813;DHT22;9030;50.792;8.320;2023-08-07T03:06:18;11.70;99.90
17813;DHT22;9030;50.792;8.320;2023-08-07T03:08:44;11.70;99.90
17813;DHT22;9030;50.792;8.320;2023-08-07T03:11:11;11.70;99.90
17813;DHT22;9030;50.792;8.320;2023-08-07T03:13:38;11.60;99.90
17813;DHT22;9030;50.792;8.320;2023-08-07T03:16:06;11.60;99.90
17813;DHT22;9030;50.792;8.320;2023-08-07T03:18:33;11.60;99.90
17813;DHT22;9030;50.792;8.320;2023-08-07T03:21:01;11.60;99.90
17813;DHT22;9030;50.792;8.320;2023-08-07T03:23:28;11.60;99.90
17813;DHT22;9030;50.792;8.320;2023-08-07T03:26:02;11.70;99.90
17813;DHT22;9030;50.792;8.320;2023-08-07T03:28:29;11.60;99.90
17813;DHT22;9030;50.792;8.320;2023-08-07T03:30:55;11.60;99.90
17813;DHT22;9030;50.792;8.320;2023-08-07T03:33:22;11.60;99.90
17813;DHT22;9030;50.792;8.320;2023-08-07T03:35:49;11.60;99.90
17813;DHT22;9030;50.792;8.320;2023-08-07T03:38:17;11.60;99.90
17813;DHT22;9030;50.792;8.320;2023-08-07T03:40:43;11.60;99.90
17813;DHT22;9030;50.792;8.320;2023-08-07T03:43:10;11.60;99.90
17813;DHT22;9030;50.792;8.320;2023-08-07T03:45:37;11.60;99.90
17813;DHT22;9030;50.792;8.320;2023-08-07T03:48:04;11.60;99.90
17813;DHT22;9030;50.792;8.320;2023-08-07T03:50:31;11.50;99.90
17813;DHT22;9030;50.792;8.320;2023-08-07T03:53:00;11.60;99.90
17813;DHT22;9030;50.792;8.320;2023-08-07T03:55:28;11.50;99.90
17813;DHT22;9030;50.792;8.320;2023-08-07T03:57:55;11.60;99.90
17813;DHT22;9030;50.792;8.320;2023-08-07T04:00:21;11.50;99.90
17813;DHT22;9030;50.792;8.320;2023-08-07T04:02:48;11.50;99.90
17813;DHT22;9030;50.792;8.320;2023-08-07T04:05:15;11.50;99.90
17813;DHT22;9030;50.792;8.320;2023-08-07T04:07:41;11.50;99.90
17813;DHT22;9030;50.792;8.320;2023-08-07T04:10:09;11.50;99.90
17813;DHT22;9030;50.792;8.320;2023-08-07T04:12:37;11.50;99.90
17813;DHT22;9030;50.792;8.320;2023-08-07T04:15:04;11.50;99.90
17813;DHT22;9030;50.792;8.320;2023-08-07T04:17:32;11.50;99.90
17813;DHT22;9030;50.792;8.320;2023-08-07T04:19:58;11.50;99.90
17813;DHT22;9030;50.792;8.320;2023-08-07T04:22:25;11.50;99.90
17813;DHT22;9030;50.792;8.320;2023-08-07T04:24:52;11.50;99.90
17813;DHT22;9030;50.792;8.320;2023-08-07T04:27:18;11.50;99.90
17813;DHT22;9030;50.792;8.320;2023-08-07T04:29:47;11.50;99.90
17813;DHT22;9030;50.792;8.320;2023-08-07T04:32:13;11.50;99.90
17813;DHT22;9030;50.792;8.320;2023-08-07T04:34:40;11.50;99.90
17813;DHT22;9030;50.792;8.320;2023-08-07T04:37:06;11.50;99.90
17813;DHT22;9030;50.792;8.320;2023-08-07T04:39:33;11.50;99.90
17813;DHT22;9030;50.792;8.320;2023-08-07T04:42:01;11.50;99.90
17813;DHT22;9030;50.792;8.320;2023-08-07T04:44:27;11.50;99.90
17813;DHT22;9030;50.792;8.320;2023-08-07T04:46:55;11.60;99.90
17813;DHT22;9030;50.792;8.320;2023-08-07T04:49:22;11.60;99.90
17813;DHT22;9030;50.792;8.320;2023-08-07T04:51:49;11.60;99.90
17813;DHT22;9030;50.792;8.320;2023-08-07T04:54:15;11.50;99.90
17813;DHT22;9030;50.792;8.320;2023-08-07T04:56:42;11.60;99.90
17813;DHT22;9030;50.792;8.320;2023-08-07T04:59:09;11.50;99.90
17813;DHT22;9030;50.792;8.320;2023-08-07T05:01:36;11.50;99.90
17813;DHT22;9030;50.792;8.320;2023-08-07T05:04:05;11.50;99.90
17813;DHT22;9030;50.792;8.320;2023-08-07T05:06:31;11.50;99.90
17813;DHT22;9030;50.792;8.320;2023-08-07T05:08:58;11.60;99.90
17813;DHT22;9030;50.792;8.320;2023-08-07T05:11:25;11.50;99.90
17813;DHT22;9030;50.792;8.320;2023-08-07T05:13:51;11.50;99.90
17813;DHT22;9030;50.792;8.320;2023-08-07T05:16:18;11.60;99.90
17813;DHT22;9030;50.792;8.320;2023-08-07T05:18:45;11.50;99.90
17813;DHT22;9030;50.792;8.320;2023-08-07T05:21:13;11.60;99.90
17813;DHT22;9030;50.792;8.320;2023-08-07T05:23:39;11.60;99.90
17813;DHT22;9030;50.792;8.320;2023-08-07T05:26:06;11.60;99.90
17813;DHT22;9030;50.792;8.320;2023-08-07T05:28:33;11.60;99.90
17813;DHT22;9030;50.792;8.320;2023-08-07T05:30:59;11.60;99.90
17813;DHT22;9030;50.792;8.320;2023-08-07T05:33:26;11.60;99.90
17813;DHT22;9030;50.792;8.320;2023-08-07T05:35:53;11.60;99.90
17813;DHT22;9030;50.792;8.320;2023-08-07T05:38:22;11.60;99.90
17813;DHT22;9030;50.792;8.320;2023-08-07T05:40:48;11.60;99.90
17813;DHT22;9030;50.792;8.320;2023-08-07T05:43:16;11.60;99.90
17813;DHT22;9030;50.792;8.320;2023-08-07T05:45:43;11.60;99.90
17813;DHT22;9030;50.792;8.320;2023-08-07T05:48:11;11.60;99.90
17813;DHT22;9030;50.792;8.320;2023-08-07T05:50:38;11.60;99.90
17813;DHT22;9030;50.792;8.320;2023-08-07T05:53:05;11.70;99.90
17813;DHT22;9030;50.792;8.320;2023-08-07T05:55:33;11.70;99.90
17813;DHT22;9030;50.792;8.320;2023-08-07T05:58:00;11.70;99.90
17813;DHT22;9030;50.792;8.320;2023-08-07T06:00:26;11.70;99.90
17813;DHT22;9030;50.792;8.320;2023-08-07T06:02:53;11.80;99.90
17813;DHT22;9030;50.792;8.320;2023-08-07T06:05:20;11.80;99.90
17813;DHT22;9030;50.792;8.320;2023-08-07T06:07:47;11.90;99.90
17813;DHT22;9030;50.792;8.320;2023-08-07T06:10:13;11.90;99.90
17813;DHT22;9030;50.792;8.320;2023-08-07T06:12:41;11.80;99.90
17813;DHT22;9030;50.792;8.320;2023-08-07T06:15:09;11.80;99.90
17813;DHT22;9030;50.792;8.320;2023-08-07T06:17:35;11.90;99.90
17813;DHT22;9030;50.792;8.320;2023-08-07T06:20:06;11.90;99.90
17813;DHT22;9030;50.792;8.320;2023-08-07T06:22:34;11.90;99.90
17813;DHT22;9030;50.792;8.320;2023-08-07T06:25:01;12.00;99.90
17813;DHT22;9030;50.792;8.320;2023-08-07T06:27:28;11.90;99.90
17813;DHT22;9030;50.792;8.320;2023-08-07T06:29:57;12.00;99.90
17813;DHT22;9030;50.792;8.320;2023-08-07T06:32:24;12.00;99.90
17813;DHT22;9030;50.792;8.320;2023-08-07T06:34:51;11.90;99.90
17813;DHT22;9030;50.792;8.320;2023-08-07T06:37:18;11.90;99.90
17813;DHT22;9030;50.792;8.320;2023-08-07T06:39:44;12.00;99.90
17813;DHT22;9030;50.792;8.320;2023-08-07T06:42:11;11.90;99.90
17813;DHT22;9030;50.792;8.320;2023-08-07T06:44:38;11.90;99.90
17813;DHT22;9030;50.792;8.320;2023-08-07T06:47:07;12.00;99.90
17813;DHT22;9030;50.792;8.320;2023-08-07T06:49:33;12.00;99.90
17813;DHT22;9030;50.792;8.320;2023-08-07T06:52:00;12.00;99.90
17813;DHT22;9030;50.792;8.320;2023-08-07T06:54:27;12.00;99.90
17813;DHT22;9030;50.792;8.320;2023-08-07T06:56:54;12.00;99.90
17813;DHT22;9030;50.792;8.320;2023-08-07T06:59:20;12.00;99.90
17813;DHT22;9030;50.792;8.320;2023-08-07T07:01:47;12.00;99.90
17813;DHT22;9030;50.792;8.320;2023-08-07T07:04:15;12.00;99.90
17813;DHT22;9030;50.792;8.320;2023-08-07T07:06:42;12.00;99.90
17813;DHT22;9030;50.792;8.320;2023-08-07T07:09:09;12.10;99.90
17813;DHT22;9030;50.792;8.320;2023-08-07T07:11:35;12.10;99.90
17813;DHT22;9030;50.792;8.320;2023-08-07T07:14:03;12.10;99.90
17813;DHT22;9030;50.792;8.320;2023-08-07T07:16:30;12.10;99.90
17813;DHT22;9030;50.792;8.320;2023-08-07T07:18:56;12.10;99.90
17813;DHT22;9030;50.792;8.320;2023-08-07T07:21:25;12.10;99.90
17813;DHT22;9030;50.792;8.320;2023-08-07T07:23:51;12.10;99.90
17813;DHT22;9030;50.792;8.320;2023-08-07T07:26:18;12.10;99.90
17813;DHT22;9030;50.792;8.320;2023-08-07T07:28:45;12.20;99.90
17813;DHT22;9030;50.792;8.320;2023-08-07T07:31:12;12.20;99.90
17813;DHT22;9030;50.792;8.320;2023-08-07T07:33:38;12.30;99.90
17813;DHT22;9030;50.792;8.320;2023-08-07T07:36:06;12.30;99.90
17813;DHT22;9030;50.792;8.320;2023-08-07T07:38:34;12.30;99.90
17813;DHT22;9030;50.792;8.320;2023-08-07T07:41:01;12.20;99.90
17813;DHT22;9030;50.792;8.320;2023-08-07T07:43:27;12.20;99.90
17813;DHT22;9030;50.792;8.320;2023-08-07T07:45:55;12.20;99.90
17813;DHT22;9030;50.792;8.320;2023-08-07T07:48:21;12.20;99.90
17813;DHT22;9030;50.792;8.320;2023-08-07T07:50:48;12.10;99.90
17813;DHT22;9030;50.792;8.320;2023-08-07T07:53:14;12.00;99.90
17813;DHT22;9030;50.792;8.320;2023-08-07T07:55:46;11.90;99.90
17813;DHT22;9030;50.792;8.320;2023-08-07T07:58:13;12.00;99.90
17813;DHT22;9030;50.792;8.320;2023-08-07T08:00:40;12.10;99.90
17813;DHT22;9030;50.792;8.320;2023-08-07T08:03:07;12.10;99.90
17813;DHT22;9030;50.792;8.320;2023-08-07T08:05:34;12.10;99.90
17813;DHT22;9030;50.792;8.320;2023-08-07T08:08:01;12.20;99.90
17813;DHT22;9030;50.792;8.320;2023-08-07T08:10:28;12.20;99.90
17813;DHT22;9030;50.792;8.320;2023-08-07T08:12:56;12.10;99.90
17813;DHT22;9030;50.792;8.320;2023-08-07T08:15:23;12.20;99.90
17813;DHT22;9030;50.792;8.320;2023-08-07T08:17:49;12.20;99.90
17813;DHT22;9030;50.792;8.320;2023-08-07T08:20:16;12.10;99.90
17813;DHT22;9030;50.792;8.320;2023-08-07T08:22:43;12.10;99.90
17813;DHT22;9030;50.792;8.320;2023-08-07T08:25:10;12.20;99.90
17813;DHT22;9030;50.792;8.320;2023-08-07T08:27:38;12.20;99.90
17813;DHT22;9030;50.792;8.320;2023-08-07T08:30:07;12.20;99.90
17813;DHT22;9030;50.792;8.320;2023-08-07T08:32:34;12.20;99.90
17813;DHT22;9030;50.792;8.320;2023-08-07T08:35:01;12.10;99.90
17813;DHT22;9030;50.792;8.320;2023-08-07T08:37:27;12.00;99.90
17813;DHT22;9030;50.792;8.320;2023-08-07T08:39:55;11.90;99.90
17813;DHT22;9030;50.792;8.320;2023-08-07T08:42:21;12.00;99.90
17813;DHT22;9030;50.792;8.320;2023-08-07T08:44:52;12.10;99.90
17813;DHT22;9030;50.792;8.320;2023-08-07T08:47:20;12.00;99.90
17813;DHT22;9030;50.792;8.320;2023-08-07T08:49:49;12.00;99.90
17813;DHT22;9030;50.792;8.320;2023-08-07T08:52:17;12.00;99.90
17813;DHT22;9030;50.792;8.320;2023-08-07T08:54:45;12.30;99.90
17813;DHT22;9030;50.792;8.320;2023-08-07T08:57:12;12.20;99.90
17813;DHT22;9030;50.792;8.320;2023-08-07T08:59:40;12.30;99.90
17813;DHT22;9030;50.792;8.320;2023-08-07T09:02:07;12.30;99.90
17813;DHT22;9030;50.792;8.320;2023-08-07T09:04:36;12.40;99.90
17813;DHT22;9030;50.792;8.320;2023-08-07T09:07:02;12.60;99.90
17813;DHT22;9030;50.792;8.320;2023-08-07T09:09:30;12.70;99.90
17813;DHT22;9030;50.792;8.320;2023-08-07T09:11:59;12.80;99.90
17813;DHT22;9030;50.792;8.320;2023-08-07T09:14:27;12.60;99.90
17813;DHT22;9030;50.792;8.320;2023-08-07T09:16:58;12.60;99.90
17813;DHT22;9030;50.792;8.320;2023-08-07T09:19:25;12.70;99.90
17813;DHT22;9030;50.792;8.320;2023-08-07T09:21:53;12.70;99.90
17813;DHT22;9030;50.792;8.320;2023-08-07T09:24:20;12.60;99.90
17813;DHT22;9030;50.792;8.320;2023-08-07T09:26:48;12.50;99.90
17813;DHT22;9030;50.792;8.320;2023-08-07T09:29:17;12.60;99.90
17813;DHT22;9030;50.792;8.320;2023-08-07T09:31:44;12.60;99.90
17813;DHT22;9030;50.792;8.320;2023-08-07T09:34:11;12.50;99.90
17813;DHT22;9030;50.792;8.320;2023-08-07T09:36:40;12.50;99.90
17813;DHT22;9030;50.792;8.320;2023-08-07T09:39:08;12.60;99.90
17813;DHT22;9030;50.792;8.320;2023-08-07T09:41:36;12.60;99.90
17813;DHT22;9030;50.792;8.320;2023-08-07T09:44:06;12.80;99.90
17813;DHT22;9030;50.792;8.320;2023-08-07T09:46:41;12.80;99.90
17813;DHT22;9030;50.792;8.320;2023-08-07T09:49:08;12.80;99.90
17813;DHT22;9030;50.792;8.320;2023-08-07T09:51:41;12.80;99.90
17813;DHT22;9030;50.792;8.320;2023-08-07T09:54:10;12.80;99.90
17813;DHT22;9030;50.792;8.320;2023-08-07T09:56:38;12.90;99.90
17813;DHT22;9030;50.792;8.320;2023-08-07T09:59:04;13.00;99.90
17813;DHT22;9030;50.792;8.320;2023-08-07T10:01:31;13.10;99.90
17813;DHT22;9030;50.792;8.320;2023-08-07T10:03:58;13.10;99.90
17813;DHT22;9030;50.792;8.320;2023-08-07T10:06:25;13.20;99.90
17813;DHT22;9030;50.792;8.320;2023-08-07T10:08:52;13.20;99.90
17813;DHT22;9030;50.792;8.320;2023-08-07T10:11:23;13.40;99.90
17813;DHT22;9030;50.792;8.320;2023-08-07T10:13:50;13.30;99.90
17813;DHT22;9030;50.792;8.320;2023-08-07T10:16:17;13.40;99.90
17813;DHT22;9030;50.792;8.320;2023-08-07T10:18:44;13.40;99.90
17813;DHT22;9030;50.792;8.320;2023-08-07T10:21:10;13.50;99.90
17813;DHT22;9030;50.792;8.320;2023-08-07T10:23:38;13.50;99.90
17813;DHT22;9030;50.792;8.320;2023-08-07T10:26:08;13.50;99.90
17813;DHT22;9030;50.792;8.320;2023-08-07T10:28:39;13.60;99.90
17813;DHT22;9030;50.792;8.320;2023-08-07T10:31:07;13.80;99.90
17813;DHT22;9030;50.792;8.320;2023-08-07T10:33:34;13.90;99.90
17813;DHT22;9030;50.792;8.320;2023-08-07T10:36:08;14.20;99.90
17813;DHT22;9030;50.792;8.320;2023-08-07T10:38:35;14.80;99.90
17813;DHT22;9030;50.792;8.320;2023-08-07T10:41:05;14.80;99.90
17813;DHT22;9030;50.792;8.320;2023-08-07T10:43:38;15.00;99.90
17813;DHT22;9030;50.792;8.320;2023-08-07T10:46:05;15.00;99.90
17813;DHT22;9030;50.792;8.320;2023-08-07T10:48:39;14.80;99.90
17813;DHT22;9030;50.792;8.320;2023-08-07T10:51:06;14.80;99.90
17813;DHT22;9030;50.792;8.320;2023-08-07T10:53:34;14.80;99.90
17813;DHT22;9030;50.792;8.320;2023-08-07T10:56:01;14.60;99.90
17813;DHT22;9030;50.792;8.320;2023-08-07T10:58:31;14.30;99.90
17813;DHT22;9030;50.792;8.320;2023-08-07T11:01:18;14.10;99.90
17813;DHT22;9030;50.792;8.320;2023-08-07T11:03:48;14.00;99.90
17813;DHT22;9030;50.792;8.320;2023-08-07T11:06:15;14.00;99.90
17813;DHT22;9030;50.792;8.320;2023-08-07T11:08:42;14.00;99.90
17813;DHT22;9030;50.792;8.320;2023-08-07T11:11:09;14.10;99.90
17813;DHT22;9030;50.792;8.320;2023-08-07T11:13:35;14.40;99.90
17813;DHT22;9030;50.792;8.320;2023-08-07T11:16:02;14.40;99.90
17813;DHT22;9030;50.792;8.320;2023-08-07T11:18:31;14.30;99.90
17813;DHT22;9030;50.792;8.320;2023-08-07T11:20:58;14.80;99.90
17813;DHT22;9030;50.792;8.320;2023-08-07T11:23:27;15.00;99.90
17813;DHT22;9030;50.792;8.320;2023-08-07T11:25:54;14.80;99.90
17813;DHT22;9030;50.792;8.320;2023-08-07T11:28:21;14.90;99.90
17813;DHT22;9030;50.792;8.320;2023-08-07T11:30:49;14.90;99.90
17813;DHT22;9030;50.792;8.320;2023-08-07T11:33:17;14.40;99.90
17813;DHT22;9030;50.792;8.320;2023-08-07T11:35:45;14.20;99.90
17813;DHT22;9030;50.792;8.320;2023-08-07T11:38:12;14.20;99.90
17813;DHT22;9030;50.792;8.320;2023-08-07T11:40:39;14.30;99.90
17813;DHT22;9030;50.792;8.320;2023-08-07T11:43:05;14.30;99.90
17813;DHT22;9030;50.792;8.320;2023-08-07T11:45:32;14.40;99.90
17813;DHT22;9030;50.792;8.320;2023-08-07T11:47:59;14.30;99.90
17813;DHT22;9030;50.792;8.320;2023-08-07T11:50:27;14.20;99.90
17813;DHT22;9030;50.792;8.320;2023-08-07T11:52:55;14.40;99.90
17813;DHT22;9030;50.792;8.320;2023-08-07T11:55:28;14.30;99.90
17813;DHT22;9030;50.792;8.320;2023-08-07T11:57:55;14.40;99.90
17813;DHT22;9030;50.792;8.320;2023-08-07T12:00:24;14.50;99.90
17813;DHT22;9030;50.792;8.320;2023-08-07T12:02:52;15.00;99.90
17813;DHT22;9030;50.792;8.320;2023-08-07T12:05:18;15.20;99.90
17813;DHT22;9030;50.792;8.320;2023-08-07T12:07:47;15.70;99.90
17813;DHT22;9030;50.792;8.320;2023-08-07T12:10:15;16.30;99.90
17813;DHT22;9030;50.792;8.320;2023-08-07T12:12:42;16.60;99.90
17813;DHT22;9030;50.792;8.320;2023-08-07T12:15:10;16.70;99.90
17813;DHT22;9030;50.792;8.320;2023-08-07T12:17:37;16.20;99.90
17813;DHT22;9030;50.792;8.320;2023-08-07T12:20:04;16.00;99.90
17813;DHT22;9030;50.792;8.320;2023-08-07T12:22:33;16.00;99.90
17813;DHT22;9030;50.792;8.320;2023-08-07T12:25:00;16.00;99.90
17813;DHT22;9030;50.792;8.320;2023-08-07T12:27:28;16.00;99.90
17813;DHT22;9030;50.792;8.320;2023-08-07T12:29:55;16.40;99.90
17813;DHT22;9030;50.792;8.320;2023-08-07T12:32:21;16.70;99.90
17813;DHT22;9030;50.792;8.320;2023-08-07T12:34:48;16.60;99.90
17813;DHT22;9030;50.792;8.320;2023-08-07T12:37:15;16.10;99.90
17813;DHT22;9030;50.792;8.320;2023-08-07T12:39:42;16.30;99.90
17813;DHT22;9030;50.792;8.320;2023-08-07T12:42:09;16.50;99.90
17813;DHT22;9030;50.792;8.320;2023-08-07T12:44:37;16.70;99.90
17813;DHT22;9030;50.792;8.320;2023-08-07T12:47:04;16.90;99.90
17813;DHT22;9030;50.792;8.320;2023-08-07T12:49:31;17.00;99.90
17813;DHT22;9030;50.792;8.320;2023-08-07T12:51:57;16.80;99.90
17813;DHT22;9030;50.792;8.320;2023-08-07T12:54:25;16.50;99.90
17813;DHT22;9030;50.792;8.320;2023-08-07T12:56:52;16.20;99.90
17813;DHT22;9030;50.792;8.320;2023-08-07T12:59:20;15.80;99.90
17813;DHT22;9030;50.792;8.320;2023-08-07T13:01:48;15.20;99.90
17813;DHT22;9030;50.792;8.320;2023-08-07T13:04:15;15.00;99.90
17813;DHT22;9030;50.792;8.320;2023-08-07T13:06:42;14.80;99.90
17813;DHT22;9030;50.792;8.320;2023-08-07T13:09:09;14.80;99.90
17813;DHT22;9030;50.792;8.320;2023-08-07T13:11:35;14.70;99.90
17813;DHT22;9030;50.792;8.320;2023-08-07T13:14:02;14.80;99.90
17813;DHT22;9030;50.792;8.320;2023-08-07T13:16:29;15.20;99.90
17813;DHT22;9030;50.792;8.320;2023-08-07T13:18:57;16.10;99.90
17813;DHT22;9030;50.792;8.320;2023-08-07T13:21:23;16.50;99.90
17813;DHT22;9030;50.792;8.320;2023-08-07T13:23:50;16.80;99.90
17813;DHT22;9030;50.792;8.320;2023-08-07T13:26:17;17.30;99.90
17813;DHT22;9030;50.792;8.320;2023-08-07T13:28:43;17.90;99.90
17813;DHT22;9030;50.792;8.320;2023-08-07T13:31:10;18.10;99.90
17813;DHT22;9030;50.792;8.320;2023-08-07T13:33:37;17.90;99.90
17813;DHT22;9030;50.792;8.320;2023-08-07T13:36:05;18.10;99.90
17813;DHT22;9030;50.792;8.320;2023-08-07T13:38:32;18.10;99.90
17813;DHT22;9030;50.792;8.320;2023-08-07T13:40:59;17.60;99.90
17813;DHT22;9030;50.792;8.320;2023-08-07T13:43:25;17.80;99.90
17813;DHT22;9030;50.792;8.320;2023-08-07T13:45:52;18.30;99.90
17813;DHT22;9030;50.792;8.320;2023-08-07T13:48:19;18.20;99.90
17813;DHT22;9030;50.792;8.320;2023-08-07T13:50:46;17.70;99.90
17813;DHT22;9030;50.792;8.320;2023-08-07T13:53:14;17.70;99.90
17813;DHT22;9030;50.792;8.320;2023-08-07T13:55:41;17.80;99.90
17813;DHT22;9030;50.792;8.320;2023-08-07T13:58:07;17.80;99.90
17813;DHT22;9030;50.792;8.320;2023-08-07T14:00:34;17.40;99.90
17813;DHT22;9030;50.792;8.320;2023-08-07T14:03:01;17.10;99.90
17813;DHT22;9030;50.792;8.320;2023-08-07T14:05:29;17.20;99.90
17813;DHT22;9030;50.792;8.320;2023-08-07T14:07:55;17.50;99.90
17813;DHT22;9030;50.792;8.320;2023-08-07T14:10:24;17.60;99.90
17813;DHT22;9030;50.792;8.320;2023-08-07T14:12:51;17.50;99.90
17813;DHT22;9030;50.792;8.320;2023-08-07T14:15:18;17.60;99.90
17813;DHT22;9030;50.792;8.320;2023-08-07T14:17:45;17.60;99.90
17813;DHT22;9030;50.792;8.320;2023-08-07T14:20:12;17.60;99.90
17813;DHT22;9030;50.792;8.320;2023-08-07T14:22:38;17.60;99.90
17813;DHT22;9030;50.792;8.320;2023-08-07T14:25:07;17.50;99.90
17813;DHT22;9030;50.792;8.320;2023-08-07T14:27:35;17.40;99.90
17813;DHT22;9030;50.792;8.320;2023-08-07T14:30:02;17.40;99.90
17813;DHT22;9030;50.792;8.320;2023-08-07T14:32:28;17.20;99.90
17813;DHT22;9030;50.792;8.320;2023-08-07T14:34:55;17.40;99.90
17813;DHT22;9030;50.792;8.320;2023-08-07T14:37:22;17.20;99.90
17813;DHT22;9030;50.792;8.320;2023-08-07T14:39:48;17.20;99.90
17813;DHT22;9030;50.792;8.320;2023-08-07T14:42:15;17.00;99.90
17813;DHT22;9030;50.792;8.320;2023-08-07T14:44:43;17.20;99.90
17813;DHT22;9030;50.792;8.320;2023-08-07T14:47:10;17.60;99.90
17813;DHT22;9030;50.792;8.320;2023-08-07T14:49:37;18.00;99.90
17813;DHT22;9030;50.792;8.320;2023-08-07T14:52:04;17.80;99.90
17813;DHT22;9030;50.792;8.320;2023-08-07T14:54:31;17.50;99.90
17813;DHT22;9030;50.792;8.320;2023-08-07T14:56:58;17.50;99.90
17813;DHT22;9030;50.792;8.320;2023-08-07T14:59:24;17.90;99.90
17813;DHT22;9030;50.792;8.320;2023-08-07T15:01:52;18.10;99.90
17813;DHT22;9030;50.792;8.320;2023-08-07T15:04:19;18.10;99.90
17813;DHT22;9030;50.792;8.320;2023-08-07T15:06:46;18.20;99.90
17813;DHT22;9030;50.792;8.320;2023-08-07T15:09:16;18.40;99.90
17813;DHT22;9030;50.792;8.320;2023-08-07T15:11:43;18.50;99.90
17813;DHT22;9030;50.792;8.320;2023-08-07T15:14:09;18.70;99.90
17813;DHT22;9030;50.792;8.320;2023-08-07T15:16:36;18.70;99.90
17813;DHT22;9030;50.792;8.320;2023-08-07T15:19:04;18.20;99.90
17813;DHT22;9030;50.792;8.320;2023-08-07T15:21:31;18.30;99.90
17813;DHT22;9030;50.792;8.320;2023-08-07T15:23:58;18.90;99.90
17813;DHT22;9030;50.792;8.320;2023-08-07T15:26:24;19.30;99.90
17813;DHT22;9030;50.792;8.320;2023-08-07T15:28:51;19.20;99.90
17813;DHT22;9030;50.792;8.320;2023-08-07T15:31:18;19.10;99.90
17813;DHT22;9030;50.792;8.320;2023-08-07T15:33:44;19.20;99.90
17813;DHT22;9030;50.792;8.320;2023-08-07T15:36:15;18.70;99.90
17813;DHT22;9030;50.792;8.320;2023-08-07T15:38:42;19.10;99.90
17813;DHT22;9030;50.792;8.320;2023-08-07T15:41:10;18.70;99.90
17813;DHT22;9030;50.792;8.320;2023-08-07T15:43:37;18.50;99.90
17813;DHT22;9030;50.792;8.320;2023-08-07T15:46:04;18.10;99.90